Time;durP1;ratioP1;P1;durP2;ratioP2;P2;SDS_P1;SDS_P2;PMS_P1;PMS_P2;Temp;Humidity;BMP_temperature;BMP_pressure;BME280_temperature;BME280_humidity;BME280_pressure;Samples;Min_cycle;Max_cycle;Signal;HPM_P1;HPM_P2
2022/08/12 00:44:42;;;;;;;20.32;18.32;;;;;;;22.79;83.05;100589.12;1849314;77;20901;-82
2022/08/12 00:47:10;;;;;;;21.17;19.15;;;;;;;22.79;82.78;100588.26;1849474;77;20932;-82
2022/08/12 00:49:37;;;;;;;21.60;19.02;;;;;;;22.78;82.74;100583.94;1849439;77;20873;-82
2022/08/12 00:52:11;;;;;;;22.48;19.37;;;;;;;22.78;83.02;100591.95;1849455;76;21451;-81
2022/08/12 00:54:48;;;;;;;22.20;19.45;;;;;;;22.78;83.61;100593.29;1848154;77;21238;-81
2022/08/12 00:57:22;;;;;;;19.82;18.07;;;;;;;22.76;84.13;100597.47;1849229;77;21430;-81
2022/08/12 01:00:00;;;;;;;21.40;19.35;;;;;;;22.75;84.38;100595.81;1849315;76;20941;-82
2022/08/12 01:02:43;;;;;;;21.30;18.27;;;;;;;22.71;84.58;100604.67;1846641;76;20866;-82
2022/08/12 01:13:34;;;;;;;20.65;18.67;;;;;;;22.65;85.20;100591.16;1849532;77;21389;-82
2022/08/12 01:16:03;;;;;;;22.50;19.73;;;;;;;22.64;85.24;100586.31;1849372;77;20925;-82
2022/08/12 01:18:33;;;;;;;22.27;20.10;;;;;;;22.62;85.27;100578.97;1849479;77;20846;-82
2022/08/12 01:21:28;;;;;;;21.37;19.45;;;;;;;22.61;85.38;100581.33;1849382;77;21183;-83
2022/08/12 01:24:37;;;;;;;22.45;20.17;;;;;;;22.60;85.35;100584.98;1856703;76;20887;-83
2022/08/12 01:27:05;;;;;;;22.17;20.23;;;;;;;22.59;85.83;100582.00;1860468;77;20878;-82
2022/08/12 01:29:35;;;;;;;21.93;19.75;;;;;;;22.59;86.07;100587.82;1804834;77;20859;-80
2022/08/12 01:32:07;;;;;;;22.87;20.60;;;;;;;22.57;86.55;100589.35;1861619;77;20859;-84
2022/08/12 01:34:37;;;;;;;22.25;20.15;;;;;;;22.57;86.67;100590.69;1860301;77;21173;-84
2022/08/12 01:37:06;;;;;;;21.70;19.55;;;;;;;22.57;86.52;100586.67;1860302;77;20856;-83
2022/08/12 01:39:41;;;;;;;20.77;18.82;;;;;;;22.56;86.39;100593.02;1860061;76;21289;-86
2022/08/12 01:42:08;;;;;;;22.10;19.82;;;;;;;22.54;86.39;100589.67;1860151;77;20966;-83
2022/08/12 01:44:35;;;;;;;23.77;20.57;;;;;;;22.53;86.49;100590.69;1860192;77;21615;-83
2022/08/12 01:47:29;;;;;;;21.95;19.70;;;;;;;22.52;86.64;100595.21;1829253;77;21135;-84
2022/08/12 01:50:12;;;;;;;;;;;;;;;22.53;86.57;100596.04;1862925;77;20914;-83
2022/08/12 01:53:10;;;;;;;21.43;19.40;;;;;;;22.50;86.59;100596.36;1860565;76;20380;-85
2022/08/12 01:55:38;;;;;;;21.77;19.48;;;;;;;22.47;86.67;100590.03;1860298;77;20915;-83
2022/08/12 02:01:22;;;;;;;20.80;19.00;;;;;;;22.45;87.01;100586.18;1860433;77;21250;-84
2022/08/12 02:13:59;;;;;;;24.27;20.00;;;;;;;22.36;87.24;100576.52;1860185;77;20883;-83
2022/08/12 02:16:51;;;;;;;;;;;;;;;22.35;87.56;100567.67;1862765;77;21329;-84
2022/08/12 02:19:47;;;;;;;21.85;18.70;;;;;;;22.33;87.75;100564.34;1860143;77;20127;-83
2022/08/12 02:22:43;;;;;;;22.77;20.45;;;;;;;22.31;87.71;100566.34;1859964;77;20903;-83
2022/08/12 02:25:39;;;;;;;24.07;20.85;;;;;;;22.29;87.81;100570.19;1860216;77;20875;-83
2022/08/12 02:28:06;;;;;;;22.13;20.02;;;;;;;22.29;88.30;100575.03;1860172;77;20950;-83
2022/08/12 02:30:36;;;;;;;24.70;20.45;;;;;;;22.28;88.33;100569.37;1860544;77;21226;-83
2022/08/12 02:33:04;;;;;;;22.45;20.37;;;;;;;22.28;88.39;100572.04;1861049;77;20943;-85
2022/08/12 02:35:34;;;;;;;21.17;19.27;;;;;;;22.27;88.58;100569.02;1860132;77;20910;-84
2022/08/12 02:38:06;;;;;;;25.10;20.05;;;;;;;22.26;88.89;100565.20;1860088;77;20852;-84
2022/08/12 02:40:37;;;;;;;21.07;19.37;;;;;;;22.26;89.16;100569.20;1860280;77;20851;-83
2022/08/12 02:43:15;;;;;;;22.05;19.98;;;;;;;22.24;89.46;100560.02;1860117;77;21077;-83
2022/08/12 02:45:58;;;;;;;23.47;20.90;;;;;;;22.23;89.62;100568.19;1860006;76;20835;-83
2022/08/12 02:48:48;;;;;;;22.17;20.27;;;;;;;22.23;89.84;100565.52;1860369;76;20939;-83
2022/08/12 02:51:22;;;;;;;22.10;19.95;;;;;;;22.22;90.07;100567.37;1859151;77;20824;-83
2022/08/12 02:53:49;;;;;;;23.85;21.40;;;;;;;22.22;90.15;100569.20;1860240;76;20919;-83
2022/08/12 02:56:16;;;;;;;22.70;20.70;;;;;;;22.22;90.20;100570.55;1860292;77;21232;-84
2022/08/12 02:58:45;;;;;;;22.02;19.98;;;;;;;22.22;90.39;100571.38;1860210;77;20869;-83
2022/08/12 03:01:13;;;;;;;23.15;20.08;;;;;;;22.22;90.55;100581.23;1860270;76;21460;-84
2022/08/12 03:03:40;;;;;;;21.75;19.85;;;;;;;22.21;90.70;100575.03;1860791;77;20903;-81
2022/08/12 03:06:16;;;;;;;21.73;19.57;;;;;;;22.21;90.92;100572.36;1861937;77;21436;-83
2022/08/12 03:08:43;;;;;;;22.00;19.77;;;;;;;22.22;90.83;100580.72;1861378;77;21216;-84
2022/08/12 03:11:37;;;;;;;21.48;19.35;;;;;;;22.22;90.83;100585.23;1860299;77;20891;-82
2022/08/12 03:14:03;;;;;;;21.68;19.85;;;;;;;22.22;91.03;100590.58;1825357;77;20996;-83
2022/08/12 03:16:30;;;;;;;22.55;20.35;;;;;;;22.21;90.98;100596.41;1825986;77;20915;-83
2022/08/12 03:18:57;;;;;;;22.40;19.20;;;;;;;22.21;90.90;100596.87;1826189;77;20879;-83
2022/08/12 03:21:24;;;;;;;21.42;19.15;;;;;;;22.22;90.69;100590.07;1826272;78;21283;-83
2022/08/12 03:23:54;;;;;;;20.62;18.82;;;;;;;22.25;89.97;100599.08;1817363;77;20847;-84
2022/08/12 03:26:24;;;;;;;19.60;17.82;;;;;;;22.29;89.15;100601.75;1775429;79;21395;-83
2022/08/12 03:28:56;;;;;;;19.37;17.48;;;;;;;22.34;88.26;100616.79;1801719;78;21431;-84
2022/08/12 03:31:28;;;;;;;21.33;16.25;;;;;;;22.38;86.75;100611.92;1802048;78;20958;-82
2022/08/12 03:34:06;;;;;;;22.42;16.77;;;;;;;22.42;85.14;100615.11;1801735;79;21296;-83
2022/08/12 03:36:35;;;;;;;17.23;15.72;;;;;;;22.47;83.60;100614.08;1801695;78;20847;-82
2022/08/12 03:41:57;;;;;;;17.25;15.28;;;;;;;22.57;80.27;100616.08;1801499;78;21476;-83
2022/08/12 04:01:11;;;;;;;23.18;13.50;;;;;;;23.12;71.12;100627.78;1835447;77;21150;-82
2022/08/12 04:03:53;;;;;;;14.85;12.93;;;;;;;23.18;69.80;100625.24;1807752;78;20917;-85
2022/08/12 04:06:26;;;;;;;22.10;14.05;;;;;;;23.28;68.20;100630.91;1835328;77;20950;-83
2022/08/12 04:08:56;;;;;;;14.85;13.15;;;;;;;23.38;68.54;100631.51;1835007;76;20879;-83
2022/08/12 04:14:19;;;;;;;14.05;12.53;;;;;;;23.53;67.21;100632.94;1834978;77;21156;-84
2022/08/12 04:16:49;;;;;;;;;;;;;;;23.59;66.17;100638.94;1837592;76;20946;-83
2022/08/12 04:19:16;;;;;;;15.75;12.20;;;;;;;23.66;65.42;100634.53;1834844;78;20163;-82
2022/08/12 04:21:43;;;;;;;20.75;12.58;;;;;;;23.74;65.35;100630.95;1834732;77;20879;-83
2022/08/12 04:24:10;;;;;;;19.48;12.63;;;;;;;23.81;65.28;100636.45;1844416;75;20902;-84
2022/08/12 04:26:40;;;;;;;17.10;12.23;;;;;;;23.88;63.75;100641.42;1859989;77;21215;-82
2022/08/12 04:29:09;;;;;;;19.05;13.70;;;;;;;23.95;63.74;100634.36;1860303;77;20887;-83
2022/08/12 04:31:38;;;;;;;19.45;13.83;;;;;;;24.04;63.56;100639.98;1859932;77;20942;-82
2022/08/12 04:34:06;;;;;;;19.35;13.50;;;;;;;24.12;63.32;100637.25;1859956;77;20883;-82
2022/08/12 04:36:33;;;;;;;14.45;12.53;;;;;;;24.21;63.20;100635.30;1860000;76;20858;-82
2022/08/12 04:39:01;;;;;;;19.17;13.22;;;;;;;24.28;62.02;100632.25;1859947;76;21131;-82
2022/08/12 04:41:28;;;;;;;22.90;14.93;;;;;;;24.37;62.04;100637.02;1829285;77;21450;-81
2022/08/12 04:43:54;;;;;;;15.53;13.93;;;;;;;24.46;60.71;100638.61;1860027;77;20879;-81
2022/08/12 04:46:23;;;;;;;23.22;14.33;;;;;;;24.54;60.10;100640.39;1859975;77;20923;-84
2022/08/12 04:48:53;;;;;;;23.45;16.12;;;;;;;24.63;60.15;100649.19;1860108;76;20966;-83
2022/08/12 04:51:20;;;;;;;20.65;15.95;;;;;;;24.72;60.51;100654.30;1859956;76;21208;-81
2022/08/12 04:53:47;;;;;;;23.15;17.75;;;;;;;24.80;60.42;100658.22;1859828;77;21055;-83
2022/08/12 04:56:14;;;;;;;20.52;17.40;;;;;;;24.87;60.11;100660.17;1860106;77;20868;-81
2022/08/12 04:58:41;;;;;;;26.45;17.73;;;;;;;24.91;59.75;100667.66;1860104;77;20863;-81
2022/08/12 05:01:12;;;;;;;22.58;16.65;;;;;;;24.94;59.38;100671.82;1860263;77;20884;-83
2022/08/12 05:03:39;;;;;;;24.18;18.02;;;;;;;24.96;58.73;100673.81;1830050;77;21246;-82
2022/08/12 05:06:06;;;;;;;27.42;15.70;;;;;;;24.96;58.75;100677.84;1860370;76;21432;-82
2022/08/12 05:08:33;;;;;;;23.57;15.05;;;;;;;24.97;58.29;100678.17;1860201;76;20884;-84
2022/08/12 05:11:00;;;;;;;19.73;13.60;;;;;;;24.96;58.36;100688.05;1860049;77;20880;-84
2022/08/12 05:13:30;;;;;;;18.32;12.55;;;;;;;24.94;57.39;100675.84;1860217;77;20966;-83
2022/08/12 05:15:57;;;;;;;21.30;14.58;;;;;;;24.93;57.49;100685.75;1860347;77;21109;-83
2022/08/12 05:18:24;;;;;;;21.45;14.80;;;;;;;24.92;56.63;100676.53;1860238;77;21368;-84
2022/08/12 05:20:50;;;;;;;22.80;12.30;;;;;;;24.91;56.47;100685.62;1859956;76;21024;-83
2022/08/12 05:23:19;;;;;;;15.90;11.28;;;;;;;24.90;55.96;100683.94;1860007;77;20919;-83
2022/08/12 05:25:48;;;;;;;19.20;11.35;;;;;;;24.92;55.45;100692.15;1850218;77;20991;-83
2022/08/12 05:28:15;;;;;;;16.82;9.58;;;;;;;24.96;55.66;100688.05;1849177;77;21253;-83
2022/08/12 05:30:43;;;;;;;11.95;9.25;;;;;;;24.99;54.67;100676.11;1849323;77;20854;-84
2022/08/12 05:33:10;;;;;;;15.93;9.40;;;;;;;25.03;53.45;100683.64;1849122;77;20878;-84
2022/08/12 05:35:40;;;;;;;11.40;8.40;;;;;;;25.14;53.21;100676.95;1849222;77;20881;-83
2022/08/12 05:40:58;;;;;;;14.98;8.58;;;;;;;25.58;50.53;100690.02;1849329;77;21138;-83
2022/08/12 05:43:25;;;;;;;10.70;6.60;;;;;;;26.00;50.30;100697.33;1849420;77;20874;-84
2022/08/12 05:45:51;;;;;;;12.95;8.80;;;;;;;26.38;48.70;100710.50;1849392;76;20854;-82
2022/08/12 05:48:18;;;;;;;16.05;9.05;;;;;;;26.69;47.37;100693.19;1851838;77;20960;-84
2022/08/12 05:50:45;;;;;;;11.75;7.50;;;;;;;26.86;46.35;100691.86;1850129;76;20900;-85
2022/08/12 05:53:12;;;;;;;10.90;7.40;;;;;;;26.98;45.97;100700.73;1849200;77;21095;-83
2022/08/12 05:55:39;;;;;;;9.20;6.62;;;;;;;27.02;45.06;100698.78;1849256;77;20916;-83
2022/08/12 05:58:06;;;;;;;13.38;7.50;;;;;;;27.04;45.48;100688.66;1849336;77;20992;-83
2022/08/12 06:00:34;;;;;;;12.03;7.03;;;;;;;27.05;44.77;100690.30;1849326;77;21343;-83
2022/08/12 06:03:02;;;;;;;12.25;7.40;;;;;;;27.03;44.74;100689.67;1849792;77;20971;-85
2022/08/12 06:05:34;;;;;;;12.68;7.37;;;;;;;27.02;44.26;100692.06;1849727;77;21916;-82
2022/08/12 06:08:05;;;;;;;15.85;8.03;;;;;;;27.00;44.00;100699.50;1849158;77;20845;-86
2022/08/12 06:10:33;;;;;;;10.10;6.10;;;;;;;26.96;43.59;100704.13;1849073;77;20862;-82
2022/08/12 06:13:01;;;;;;;11.22;6.92;;;;;;;26.93;44.04;100704.54;1849203;77;21039;-83
2022/08/12 06:15:28;;;;;;;11.18;6.45;;;;;;;26.89;43.93;100698.70;1849240;76;20967;-83
2022/08/12 06:17:56;;;;;;;6.62;5.62;;;;;;;26.87;43.96;100708.84;1849166;77;21389;-83
2022/08/12 06:20:23;;;;;;;12.98;6.65;;;;;;;26.85;43.73;100704.98;1823456;77;20905;-82
2022/08/12 06:22:50;;;;;;;19.65;6.03;;;;;;;26.82;43.72;100710.77;1849099;77;20909;-84
2022/08/12 06:25:17;;;;;;;9.13;6.15;;;;;;;26.77;43.63;100705.16;1840634;75;20938;-85
2022/08/12 06:27:47;;;;;;;8.98;6.20;;;;;;;26.73;43.86;100701.72;1834842;76;20839;-83
2022/08/12 06:30:19;;;;;;;11.00;6.03;;;;;;;26.67;43.85;100699.28;1834722;78;21727;-82
2022/08/12 06:32:48;;;;;;;10.32;6.22;;;;;;;26.62;44.13;100706.59;1834568;77;21029;-82
2022/08/12 06:35:16;;;;;;;10.70;5.50;;;;;;;26.56;44.34;100699.81;1834071;77;20902;-84
2022/08/12 06:39:31;;;;;;;7.45;6.58;;;;;;;26.53;44.58;100698.33;1816378;79;22534;-85
2022/08/12 06:44:45;;;;;;;8.55;6.22;;;;;;;26.42;44.99;100701.02;1789772;80;21145;-84
2022/08/12 06:47:15;;;;;;;16.30;13.65;;;;;;;26.39;45.23;100712.67;1789427;80;21033;-83
2022/08/12 06:49:42;;;;;;;13.95;6.67;;;;;;;26.36;45.65;100707.17;1789665;80;21370;-83
2022/08/12 06:52:09;;;;;;;10.38;7.00;;;;;;;26.34;45.92;100693.09;1789774;80;20880;-83
2022/08/12 06:54:35;;;;;;;13.08;8.25;;;;;;;26.30;46.60;100677.53;1789592;80;20876;-84
2022/08/12 06:57:02;;;;;;;16.52;8.33;;;;;;;26.24;46.83;100677.30;1789524;80;21254;-84
2022/08/12 06:59:29;;;;;;;12.93;9.38;;;;;;;26.19;47.00;100685.61;1789586;80;20994;-82
2022/08/12 07:01:56;;;;;;;18.85;9.45;;;;;;;26.15;47.29;100681.67;1789723;80;20852;-83
2022/08/12 07:04:22;;;;;;;22.17;9.25;;;;;;;26.10;47.72;100688.97;1789833;80;20902;-83
2022/08/12 07:06:49;;;;;;;18.10;9.00;;;;;;;26.05;48.27;100689.52;1789695;80;20931;-81
2022/08/12 07:09:16;;;;;;;16.70;9.58;;;;;;;26.02;48.79;100695.28;1789718;80;21086;-84
2022/08/12 07:11:43;;;;;;;24.95;9.28;;;;;;;25.99;49.40;100688.11;1789739;80;20856;-83
2022/08/12 07:14:10;;;;;;;16.60;8.98;;;;;;;25.95;50.23;100687.67;1789594;80;20983;-84
2022/08/12 07:16:52;;;;;;;13.88;9.78;;;;;;;25.90;50.84;100679.37;1789509;80;20998;-84
2022/08/12 07:19:20;;;;;;;16.93;10.80;;;;;;;25.84;51.99;100682.26;1789709;80;21373;-83
2022/08/12 07:21:47;;;;;;;16.50;10.65;;;;;;;25.78;52.65;100671.44;1789875;80;21215;-81
2022/08/12 07:24:13;;;;;;;13.43;9.53;;;;;;;25.71;53.33;100663.83;1789977;80;20849;-83
2022/08/12 07:26:40;;;;;;;17.02;9.63;;;;;;;25.65;54.39;100661.38;1790105;80;20983;-84
2022/08/12 07:29:08;;;;;;;20.68;14.55;;;;;;;25.57;55.02;100661.52;1789947;80;21113;-86
2022/08/12 07:31:36;;;;;;;14.23;9.95;;;;;;;25.50;55.76;100660.09;1789683;80;20825;-84
2022/08/12 07:34:04;;;;;;;17.30;11.90;;;;;;;25.40;56.46;100656.87;1789550;80;21152;-83
2022/08/12 07:36:34;;;;;;;19.10;10.10;;;;;;;25.33;56.81;100654.11;1789821;80;20923;-84
2022/08/12 07:39:02;;;;;;;18.73;10.35;;;;;;;25.27;57.32;100650.82;1786037;80;20931;-85
2022/08/12 07:41:30;;;;;;;12.98;11.12;;;;;;;25.22;57.63;100643.33;1784152;80;20908;-84
2022/08/12 07:44:00;;;;;;;19.10;10.68;;;;;;;25.20;58.12;100643.20;1784494;80;21469;-86
2022/08/12 07:46:35;;;;;;;18.10;11.25;;;;;;;25.17;58.66;100641.70;1784262;80;21124;-85
2022/08/12 07:49:09;;;;;;;18.87;11.33;;;;;;;25.14;59.27;100635.34;1784153;80;20919;-85
2022/08/12 07:51:35;;;;;;;;;;;;;;;25.13;59.58;100633.69;1786583;80;20952;-85
2022/08/12 07:54:08;;;;;;;21.23;10.93;;;;;;;25.12;60.01;100636.03;1783705;80;20112;-83
2022/08/12 07:56:32;;;;;;;18.48;11.03;;;;;;;25.10;60.22;100639.45;1783502;80;21408;-83
2022/08/12 07:58:59;;;;;;;16.40;12.05;;;;;;;25.10;60.59;100639.45;1783922;80;21940;-84
2022/08/12 08:01:26;;;;;;;17.95;10.78;;;;;;;25.10;60.80;100651.52;1784043;80;21090;-85
2022/08/12 08:06:41;;;;;;;18.12;11.80;;;;;;;25.12;61.29;100662.05;1783852;80;21026;-85
2022/08/12 08:09:10;;;;;;;16.07;12.50;;;;;;;25.13;61.26;100671.27;1783819;80;20923;-83
2022/08/12 08:14:31;;;;;;;17.40;11.93;;;;;;;25.20;61.11;100684.80;1784275;80;20864;-86
2022/08/12 08:17:02;;;;;;;18.80;12.75;;;;;;;25.24;61.20;100686.10;1784058;80;21014;-84
2022/08/12 08:19:29;;;;;;;17.25;13.55;;;;;;;25.33;61.15;100681.47;1784024;80;20983;-85
2022/08/12 08:21:57;;;;;;;16.97;12.78;;;;;;;25.44;61.30;100687.70;1783921;80;20915;-84
2022/08/12 08:24:28;;;;;;;18.55;12.55;;;;;;;25.55;61.26;100694.44;1784294;80;21080;-84
2022/08/12 08:26:57;;;;;;;17.50;13.93;;;;;;;25.65;61.15;100699.81;1783835;80;20886;-85
2022/08/12 08:29:24;;;;;;;21.20;14.33;;;;;;;25.77;61.07;100691.28;1783888;80;21360;-84
2022/08/12 08:31:57;;;;;;;15.20;12.93;;;;;;;25.90;60.94;100696.83;1783770;80;20927;-85
2022/08/12 08:34:25;;;;;;;14.80;12.88;;;;;;;26.04;59.92;100701.82;1783855;80;20856;-84
2022/08/12 08:36:52;;;;;;;14.33;12.75;;;;;;;26.17;59.25;100704.64;1784052;80;21428;-86
2022/08/12 08:39:21;;;;;;;14.78;12.30;;;;;;;26.34;58.32;100689.57;1783869;80;20975;-85
2022/08/12 08:44:36;;;;;;;17.12;13.10;;;;;;;26.64;57.52;100695.65;1784310;80;20884;-85
2022/08/12 08:47:04;;;;;;;13.93;12.55;;;;;;;26.79;57.53;100691.00;1784045;80;20919;-85
2022/08/12 08:49:31;;;;;;;17.48;12.80;;;;;;;26.94;57.08;100692.20;1784144;80;21226;-85
2022/08/12 08:51:57;;;;;;;19.07;12.43;;;;;;;27.07;56.30;100700.36;1783936;80;20971;-85
2022/08/12 08:54:24;;;;;;;19.27;13.45;;;;;;;27.21;56.13;100701.80;1783995;80;21438;-84
2022/08/12 08:56:52;;;;;;;16.30;13.75;;;;;;;27.43;55.65;100705.23;1784102;80;20972;-85
2022/08/12 08:59:19;;;;;;;15.65;13.90;;;;;;;27.62;54.69;100699.61;1783870;80;20991;-84
2022/08/12 09:01:46;;;;;;;16.85;12.70;;;;;;;27.80;54.33;100703.91;1784135;80;21120;-85
2022/08/12 09:04:13;;;;;;;18.40;13.45;;;;;;;27.95;54.12;100701.08;1784154;80;20919;-84
2022/08/12 09:06:43;;;;;;;15.23;13.50;;;;;;;28.11;53.51;100706.07;1785088;80;21433;-83
2022/08/12 09:09:10;;;;;;;25.32;23.00;;;;;;;28.27;52.68;100699.97;1783957;80;20960;-85
2022/08/12 09:14:22;;;;;;;14.28;12.60;;;;;;;28.66;52.83;100705.09;1783943;80;22181;-85
2022/08/12 09:16:54;;;;;;;13.95;12.53;;;;;;;28.86;51.79;100696.96;1783896;80;21037;-85
2022/08/12 09:19:17;;;;;;;20.68;11.05;;;;;;;29.00;50.82;100694.52;1782556;80;20904;-84
2022/08/12 09:21:47;;;;;;;14.25;12.55;;;;;;;29.12;49.30;100692.84;1784405;80;20979;-84
2022/08/12 09:24:17;;;;;;;14.40;11.83;;;;;;;29.22;48.95;100696.47;1784034;80;20892;-84
2022/08/12 09:26:45;;;;;;;18.12;13.45;;;;;;;29.37;48.21;100702.11;1784190;80;21291;-83
2022/08/12 09:29:19;;;;;;;14.50;12.15;;;;;;;29.51;47.87;100697.80;1783884;80;20924;-83
2022/08/12 09:31:44;;;;;;;15.55;12.50;;;;;;;29.65;47.45;100692.33;1783758;80;20845;-84
2022/08/12 09:34:11;;;;;;;15.75;12.43;;;;;;;29.76;47.15;100691.67;1783747;80;20947;-85
2022/08/12 09:36:39;;;;;;;13.95;11.43;;;;;;;29.88;46.72;100696.70;1783840;80;20964;-82
2022/08/12 09:39:07;;;;;;;16.48;12.95;;;;;;;29.94;45.62;100703.92;1783656;80;21247;-85
2022/08/12 09:41:40;;;;;;;12.82;11.53;;;;;;;29.97;45.36;100699.98;1783766;80;20976;-87
2022/08/12 09:46:52;;;;;;;22.27;13.15;;;;;;;29.97;45.32;100694.56;1784020;80;20943;-83
2022/08/12 09:49:18;;;;;;;23.27;16.75;;;;;;;29.97;44.34;100702.68;1753590;80;20967;-84
2022/08/12 09:51:46;;;;;;;16.02;12.18;;;;;;;29.96;44.70;100699.13;1783801;80;21124;-85
2022/08/12 09:54:13;;;;;;;13.80;11.08;;;;;;;30.00;44.76;100686.53;1783625;80;20919;-84
2022/08/12 09:56:42;;;;;;;16.17;12.65;;;;;;;30.04;43.63;100699.40;1784163;80;20924;-85
2022/08/12 09:59:09;;;;;;;16.32;11.50;;;;;;;30.08;44.34;100701.98;1783909;80;20896;-84
2022/08/12 10:01:40;;;;;;;12.03;11.05;;;;;;;30.15;44.26;100694.63;1784861;80;20869;-83
2022/08/12 10:04:10;;;;;;;17.95;10.75;;;;;;;30.23;44.63;100693.52;1754571;80;21148;-84
2022/08/12 10:06:37;;;;;;;12.35;11.15;;;;;;;30.29;44.27;100701.33;1784220;80;20908;-85
2022/08/12 10:09:07;;;;;;;16.82;11.80;;;;;;;30.28;44.09;100703.21;1785831;80;20849;-83
2022/08/12 10:14:19;;;;;;;15.25;11.45;;;;;;;30.22;44.21;100712.70;1783762;80;20944;-84
2022/08/12 10:16:47;;;;;;;20.90;11.70;;;;;;;30.16;44.24;100705.75;1784086;80;21151;-84
2022/08/12 10:19:17;;;;;;;16.02;12.07;;;;;;;30.09;44.77;100706.33;1783768;80;21365;-83
2022/08/12 10:21:43;;;;;;;16.10;12.53;;;;;;;30.00;44.84;100706.29;1783456;80;20947;-83
2022/08/12 10:24:14;;;;;;;12.93;11.48;;;;;;;29.92;44.68;100705.19;1783629;80;20995;-82
2022/08/12 10:29:38;;;;;;;14.30;12.75;;;;;;;29.68;45.46;100701.34;1784204;80;21842;-84
2022/08/12 10:32:15;;;;;;;19.62;11.70;;;;;;;29.60;45.92;100697.56;1783660;80;20880;-85
2022/08/12 10:34:41;;;;;;;16.20;12.30;;;;;;;29.52;45.89;100695.91;1783783;80;20983;-84
2022/08/12 10:37:08;;;;;;;17.73;13.03;;;;;;;29.45;46.12;100696.48;1783538;80;20931;-85
2022/08/12 10:39:38;;;;;;;18.25;12.63;;;;;;;29.35;46.00;100695.59;1779297;80;20924;-85
2022/08/12 10:45:00;;;;;;;14.45;12.88;;;;;;;29.17;46.95;100691.37;1775131;80;20928;-84
2022/08/12 10:47:27;;;;;;;21.17;13.43;;;;;;;29.07;47.79;100689.93;1753764;80;20869;-84
2022/08/12 10:49:54;;;;;;;13.85;12.47;;;;;;;29.01;47.72;100694.00;1775291;80;20896;-84
2022/08/12 10:52:24;;;;;;;14.87;12.37;;;;;;;28.92;47.83;100688.81;1775697;80;20948;-84
2022/08/12 10:54:50;;;;;;;17.12;12.37;;;;;;;28.83;47.74;100685.22;1776013;80;21244;-85
2022/08/12 10:57:17;;;;;;;16.52;13.08;;;;;;;28.75;48.06;100692.17;1775849;80;20861;-84
2022/08/12 10:59:44;;;;;;;17.37;13.35;;;;;;;28.62;48.23;100689.82;1775832;80;21512;-83
2022/08/12 11:02:14;;;;;;;22.65;14.05;;;;;;;28.50;48.70;100692.33;1775773;80;20929;-84
2022/08/12 11:04:41;;;;;;;20.35;15.30;;;;;;;28.40;49.26;100693.23;1775405;80;20884;-84
2022/08/12 11:07:08;;;;;;;20.08;13.40;;;;;;;28.34;49.41;100699.97;1775357;80;21213;-86
2022/08/12 11:09:37;;;;;;;19.82;15.55;;;;;;;28.24;49.62;100699.87;1775198;80;20888;-84
2022/08/12 11:12:05;;;;;;;18.20;14.15;;;;;;;28.15;49.98;100693.02;1776464;80;20897;-83
2022/08/12 11:14:37;;;;;;;15.70;11.97;;;;;;;28.06;50.45;100697.77;1775590;80;20924;-86
2022/08/12 11:17:06;;;;;;;18.12;15.30;;;;;;;28.00;50.66;100697.77;1775412;80;20877;-85
2022/08/12 11:19:35;;;;;;;19.77;15.40;;;;;;;27.93;50.71;100696.41;1775384;80;21226;-84
2022/08/12 11:22:03;;;;;;;19.70;14.60;;;;;;;27.90;51.08;100693.61;1775376;80;21421;-83
2022/08/12 11:24:30;;;;;;;18.85;13.72;;;;;;;27.88;50.41;100705.11;1775553;80;20920;-83
2022/08/12 11:27:02;;;;;;;20.72;14.50;;;;;;;27.87;50.59;100702.61;1766591;80;21339;-84
2022/08/12 11:29:30;;;;;;;19.73;13.03;;;;;;;27.87;50.11;100703.43;1775742;80;20944;-83
2022/08/12 11:31:56;;;;;;;19.75;14.20;;;;;;;27.87;49.32;100706.12;1775443;80;21135;-84
2022/08/12 11:34:23;;;;;;;22.37;12.80;;;;;;;27.87;49.14;100710.69;1775368;80;20920;-82
2022/08/12 11:36:53;;;;;;;14.18;12.47;;;;;;;27.87;48.78;100706.65;1775463;80;20908;-84
2022/08/12 11:39:20;;;;;;;15.60;13.60;;;;;;;27.86;49.01;100702.30;1775308;80;20979;-85
2022/08/12 11:41:47;;;;;;;19.17;12.25;;;;;;;27.86;49.01;100711.73;1775587;80;20877;-84
2022/08/12 11:44:14;;;;;;;20.02;12.28;;;;;;;27.84;48.15;100715.13;1775473;80;21476;-85
2022/08/12 11:46:41;;;;;;;21.52;13.30;;;;;;;27.79;47.52;100706.30;1775367;80;20987;-83
2022/08/12 11:49:07;;;;;;;22.00;11.25;;;;;;;27.77;48.20;100714.25;1775501;80;20908;-84
2022/08/12 11:51:34;;;;;;;17.02;12.00;;;;;;;27.74;47.07;100723.58;1775505;80;20885;-84
2022/08/12 11:54:01;;;;;;;16.75;10.10;;;;;;;27.70;47.37;100712.39;1776014;80;20884;-83
2022/08/12 11:56:27;;;;;;;16.32;9.45;;;;;;;27.67;46.42;100732.98;1775859;80;21099;-84
2022/08/12 11:58:54;;;;;;;17.15;10.40;;;;;;;27.63;46.80;100719.59;1775550;80;20873;-85
2022/08/12 12:01:21;;;;;;;31.35;10.53;;;;;;;27.62;46.95;100713.09;1776302;80;20908;-85
2022/08/12 12:03:48;;;;;;;16.00;9.40;;;;;;;27.58;46.88;100715.34;1776008;80;20967;-85
2022/08/12 12:06:16;;;;;;;14.68;10.80;;;;;;;27.55;46.85;100717.63;1775514;80;20940;-85
2022/08/12 12:08:44;;;;;;;15.20;9.05;;;;;;;27.55;46.77;100715.75;1775398;80;21121;-82
2022/08/12 12:11:11;;;;;;;14.95;8.40;;;;;;;27.52;46.15;100726.09;1775319;80;20893;-84
2022/08/12 12:13:37;;;;;;;12.15;8.45;;;;;;;27.48;46.62;100718.42;1775504;80;20880;-82
2022/08/12 12:16:05;;;;;;;15.48;10.25;;;;;;;27.45;46.21;100729.58;1775599;80;20888;-82
2022/08/12 12:18:33;;;;;;;15.03;9.53;;;;;;;27.37;46.81;100730.27;1775595;80;20900;-83
2022/08/12 12:21:03;;;;;;;17.45;9.40;;;;;;;27.27;47.36;100738.72;1775467;80;21320;-84
2022/08/12 12:23:30;;;;;;;16.23;10.23;;;;;;;27.12;48.45;100728.55;1775238;80;20979;-83
2022/08/12 12:25:57;;;;;;;15.28;11.33;;;;;;;26.95;50.05;100744.20;1775217;80;20924;-85
2022/08/12 12:28:24;;;;;;;14.73;10.45;;;;;;;26.78;51.39;100736.93;1775471;80;20980;-85
2022/08/12 12:30:50;;;;;;;16.37;9.13;;;;;;;26.62;52.06;100732.16;1775466;80;20979;-83
2022/08/12 12:33:17;;;;;;;12.43;9.35;;;;;;;26.49;52.64;100740.08;1775463;80;21225;-84
2022/08/12 12:35:43;;;;;;;23.27;17.82;;;;;;;26.33;52.77;100730.42;1775561;80;20885;-83
2022/08/12 12:38:11;;;;;;;15.38;10.90;;;;;;;26.20;53.30;100731.13;1775784;80;20991;-85
2022/08/12 12:40:40;;;;;;;19.52;13.55;;;;;;;26.11;53.88;100720.70;1770473;80;21504;-85
2022/08/12 12:43:07;;;;;;;13.55;11.33;;;;;;;26.03;54.61;100718.95;1768719;81;20849;-84
2022/08/12 12:45:35;;;;;;;15.30;10.00;;;;;;;25.97;55.25;100713.03;1768391;80;21117;-85
2022/08/12 12:48:05;;;;;;;13.32;9.10;;;;;;;25.92;54.84;100715.43;1768421;80;20941;-87
2022/08/12 12:51:14;;;;;;;16.42;10.78;;;;;;;25.89;55.31;100710.45;1768335;80;20901;-84
2022/08/12 12:53:23;;;;;;;12.80;9.65;;;;;;;25.88;55.47;100704.73;1764128;80;20913;-83
2022/08/12 12:55:49;;;;;;;16.50;11.05;;;;;;;25.87;55.05;100701.19;1768314;81;20992;-86
2022/08/12 12:58:16;;;;;;;13.18;9.73;;;;;;;25.90;55.67;100698.17;1768280;80;21121;-85
2022/08/12 13:00:43;;;;;;;14.60;10.75;;;;;;;25.93;54.91;100693.75;1768517;81;21518;-85
2022/08/12 13:03:20;;;;;;;10.88;9.18;;;;;;;25.97;55.13;100699.59;1768617;81;20896;-84
2022/08/12 13:05:43;;;;;;;18.73;10.35;;;;;;;26.00;54.71;100700.53;1767665;81;21045;-84
2022/08/12 13:08:26;;;;;;;11.90;10.30;;;;;;;26.03;54.50;100697.45;1768577;81;20936;-84
2022/08/12 13:11:00;;;;;;;14.90;10.00;;;;;;;26.05;54.78;100697.58;1768572;80;21430;-84
2022/08/12 13:13:28;;;;;;;15.58;10.50;;;;;;;26.09;54.39;100697.22;1768630;81;20942;-84
2022/08/12 13:15:56;;;;;;;18.98;9.85;;;;;;;26.13;54.56;100699.84;1768716;81;20893;-83
2022/08/12 13:18:24;;;;;;;15.18;9.13;;;;;;;26.16;54.49;100701.61;1768450;81;20945;-84
2022/08/12 13:20:51;;;;;;;14.00;9.90;;;;;;;26.19;54.13;100700.39;1768620;81;20948;-83